Time;durP1;ratioP1;P1;durP2;ratioP2;P2;SDS_P1;SDS_P2;PMS_P1;PMS_P2;Temp;Humidity;BMP_temperature;BMP_pressure;BME280_temperature;BME280_humidity;BME280_pressure;Samples;Min_cycle;Max_cycle;Signal;HPM_P1;HPM_P2
2021/01/17 00:00:32;;;;;;;0.10;0.10;;;-2.00;99.90;;;;;;5016069;28;20166;-70
2021/01/17 00:03:02;;;;;;;0.20;0.20;;;-2.00;99.90;;;;;;5017825;28;20221;-70
2021/01/17 00:05:30;;;;;;;1.10;1.10;;;-2.00;99.90;;;;;;5020346;28;20176;-70
2021/01/17 00:07:57;;;;;;;0.20;0.20;;;-2.00;99.90;;;;;;5017537;28;20175;-70
2021/01/17 00:10:28;;;;;;;2.17;2.08;;;-2.10;99.90;;;;;;5018534;28;20197;-69
2021/01/17 00:12:55;;;;;;;1.27;0.93;;;-2.10;99.90;;;;;;5019169;28;20197;-70
2021/01/17 00:15:22;;;;;;;0.10;0.10;;;-2.10;99.90;;;;;;5016294;28;20209;-70
2021/01/17 00:17:48;;;;;;;0.43;0.43;;;-2.10;99.90;;;;;;5017747;28;20222;-70
2021/01/17 00:20:19;;;;;;;1.08;0.95;;;-2.10;99.90;;;;;;5017794;28;20170;-70
2021/01/17 00:22:47;;;;;;;0.63;0.63;;;-2.10;99.90;;;;;;5018056;28;20190;-70
2021/01/17 00:25:18;;;;;;;3.30;3.10;;;-2.20;99.90;;;;;;5015795;28;20194;-69
2021/01/17 00:27:45;;;;;;;1.98;1.85;;;-2.20;99.90;;;;;;5021859;28;20166;-70
2021/01/17 00:30:13;;;;;;;0.20;0.20;;;-2.30;99.90;;;;;;5016070;28;20162;-70
2021/01/17 00:32:38;;;;;;;0.20;0.20;;;-2.30;99.90;;;;;;5019815;28;20191;-71
2021/01/17 00:35:07;;;;;;;2.25;2.15;;;-2.30;99.90;;;;;;5018441;28;20196;-69
2021/01/17 00:37:33;;;;;;;0.40;0.40;;;-2.30;99.90;;;;;;5016929;28;20162;-70
2021/01/17 00:39:59;;;;;;;0.20;0.20;;;-2.20;99.90;;;;;;5017545;28;20166;-70
2021/01/17 00:42:25;;;;;;;0.55;0.50;;;-2.20;99.90;;;;;;5017588;28;20265;-70
2021/01/17 00:44:52;;;;;;;0.40;0.40;;;-2.20;99.90;;;;;;5017059;28;20162;-70
2021/01/17 00:47:20;;;;;;;3.50;3.30;;;-2.20;99.90;;;;;;5018959;28;20158;-70
2021/01/17 00:49:46;;;;;;;0.55;0.55;;;-2.10;99.90;;;;;;5019512;28;20226;-70
2021/01/17 00:52:22;;;;;;;0.10;0.10;;;-2.20;99.90;;;;;;5018693;28;20190;-70
2021/01/17 00:54:49;;;;;;;0.10;0.10;;;-2.20;99.90;;;;;;5019845;28;20285;-70
2021/01/17 00:57:15;;;;;;;0.80;0.80;;;-2.20;99.90;;;;;;5023318;28;20198;-70
2021/01/17 00:59:42;;;;;;;1.58;1.52;;;-2.20;99.90;;;;;;5018374;28;20181;-70
2021/01/17 01:02:09;;;;;;;1.10;1.10;;;-2.20;99.90;;;;;;5017013;28;20186;-70
2021/01/17 01:04:35;;;;;;;0.30;0.30;;;-2.10;99.90;;;;;;5019798;28;20170;-70
2021/01/17 01:07:01;;;;;;;0.57;0.57;;;-2.20;99.90;;;;;;5021527;28;20233;-71
2021/01/17 01:09:27;;;;;;;0.22;0.22;;;-2.20;99.90;;;;;;5025425;28;20201;-70
2021/01/17 01:11:53;;;;;;;1.27;1.25;;;-2.20;99.90;;;;;;5025520;28;20209;-70
2021/01/17 01:14:19;;;;;;;0.60;0.60;;;-2.20;99.90;;;;;;5025705;28;20170;-70
2021/01/17 01:16:53;;;;;;;0.32;0.32;;;-2.20;99.90;;;;;;5025733;28;20200;-70
2021/01/17 01:19:19;;;;;;;0.75;0.75;;;-2.30;99.90;;;;;;5026881;28;20188;-69
2021/01/17 01:21:45;;;;;;;0.70;0.70;;;-2.30;99.90;;;;;;5028596;28;20739;-71
2021/01/17 01:24:12;;;;;;;1.20;1.20;;;-2.30;99.90;;;;;;5029685;28;20173;-71
2021/01/17 01:26:40;;;;;;;1.13;1.13;;;-2.30;99.90;;;;;;5029658;28;20233;-71
2021/01/17 01:29:06;;;;;;;0.30;0.30;;;-2.40;99.90;;;;;;5029784;28;20166;-70
2021/01/17 01:31:34;;;;;;;0.17;0.17;;;-2.40;99.90;;;;;;5029661;28;20228;-71
2021/01/17 01:34:00;;;;;;;0.28;0.28;;;-2.40;99.90;;;;;;5030809;28;20168;-71
2021/01/17 01:36:29;;;;;;;0.50;0.50;;;-2.40;99.90;;;;;;5030344;28;20190;-71
2021/01/17 01:38:56;;;;;;;0.20;0.20;;;-2.50;99.90;;;;;;5028955;28;20173;-69
2021/01/17 01:41:27;;;;;;;1.77;1.65;;;-2.50;99.90;;;;;;5045174;28;20228;-69
2021/01/17 01:43:54;;;;;;;0.20;0.20;;;-2.50;99.90;;;;;;5029044;28;20229;-71
2021/01/17 01:46:22;;;;;;;0.65;0.65;;;-2.50;99.90;;;;;;5030204;28;20169;-71
2021/01/17 01:48:50;;;;;;;0.32;0.32;;;-2.50;99.90;;;;;;5030494;28;20230;-69
2021/01/17 01:51:18;;;;;;;0.20;0.20;;;-2.50;99.90;;;;;;5028627;28;20305;-71
2021/01/17 01:53:45;;;;;;;0.70;0.70;;;-2.50;99.90;;;;;;5030135;28;20177;-70
2021/01/17 01:56:14;;;;;;;0.20;0.20;;;-2.50;99.90;;;;;;5028840;28;20698;-70
2021/01/17 01:58:42;;;;;;;0.75;0.75;;;-2.40;99.90;;;;;;5029857;28;20166;-69
2021/01/17 02:01:09;;;;;;;0.40;0.40;;;-2.40;99.90;;;;;;5028607;28;20639;-71
2021/01/17 02:03:35;;;;;;;0.43;0.43;;;-2.40;99.90;;;;;;5030064;28;21071;-71
2021/01/17 02:06:02;;;;;;;0.10;0.10;;;-2.40;99.90;;;;;;5027314;28;20166;-72
2021/01/17 02:08:28;;;;;;;0.10;0.10;;;-2.40;99.90;;;;;;5030050;28;20280;-72
2021/01/17 02:11:03;;;;;;;1.17;1.08;;;-2.40;99.90;;;;;;5029914;28;20170;-72
2021/01/17 02:13:40;;;;;;;1.27;1.17;;;-2.40;99.90;;;;;;5028044;28;20180;-72
2021/01/17 02:16:08;;;;;;;0.63;0.63;;;-2.50;99.90;;;;;;5027649;28;20194;-72
2021/01/17 02:18:41;;;;;;;0.22;0.22;;;-2.50;99.90;;;;;;5028474;28;20541;-73
2021/01/17 02:21:09;;;;;;;0.20;0.20;;;-2.50;99.90;;;;;;5026262;28;20173;-72
2021/01/17 02:24:00;;;;;;;0.68;0.68;;;-2.50;99.90;;;;;;5029810;28;20170;-71
2021/01/17 02:26:26;;;;;;;0.10;0.10;;;-2.40;99.90;;;;;;5029662;28;20201;-72
2021/01/17 02:28:54;;;;;;;0.90;0.90;;;-2.50;99.90;;;;;;5029481;28;20176;-73
2021/01/17 02:31:20;;;;;;;0.85;0.85;;;-2.50;99.90;;;;;;5028828;28;20204;-71
2021/01/17 02:33:48;;;;;;;0.28;0.28;;;-2.40;99.90;;;;;;5027321;28;20174;-71
2021/01/17 02:36:40;;;;;;;0.10;0.10;;;-2.40;99.90;;;;;;5028163;28;20190;-71
2021/01/17 02:39:12;;;;;;;1.38;1.27;;;-2.50;99.90;;;;;;5028222;28;20236;-71
2021/01/17 02:41:43;;;;;;;1.70;1.65;;;-2.50;99.90;;;;;;5028928;28;20234;-71
2021/01/17 02:44:10;;;;;;;0.20;0.20;;;-2.50;99.90;;;;;;5028079;28;20658;-71
2021/01/17 02:46:36;;;;;;;1.17;1.17;;;-2.50;99.90;;;;;;5029315;28;20231;-71
2021/01/17 02:49:03;;;;;;;0.10;0.10;;;-2.50;99.90;;;;;;5025934;28;20159;-71
2021/01/17 02:51:29;;;;;;;0.52;0.52;;;-2.50;99.90;;;;;;5027820;28;20583;-70
2021/01/17 02:54:13;;;;;;;0.40;0.40;;;-2.40;99.90;;;;;;5027917;28;20193;-71
2021/01/17 02:56:50;;;;;;;0.52;0.52;;;-2.40;99.90;;;;;;5028554;28;20177;-71
2021/01/17 02:59:19;;;;;;;0.35;0.35;;;-2.40;99.90;;;;;;5029084;28;20219;-70
2021/01/17 03:01:48;;;;;;;0.10;0.10;;;-2.50;99.90;;;;;;5026650;28;20198;-71
2021/01/17 03:04:37;;;;;;;0.40;0.40;;;-2.40;99.90;;;;;;5028852;28;20162;-71
2021/01/17 03:07:08;;;;;;;3.50;1.85;;;-2.50;99.90;;;;;;5024935;28;20699;-69
2021/01/17 03:09:35;;;;;;;0.20;0.20;;;-2.40;99.90;;;;;;5028774;28;20173;-71
2021/01/17 03:12:05;;;;;;;0.82;0.82;;;-2.40;99.90;;;;;;5028535;28;20259;-72
2021/01/17 03:14:39;;;;;;;1.20;1.20;;;-2.40;99.90;;;;;;5027137;28;20230;-71
2021/01/17 03:17:06;;;;;;;1.10;1.10;;;-2.50;99.90;;;;;;5041601;28;20239;-72
2021/01/17 03:19:33;;;;;;;0.20;0.20;;;-2.50;99.90;;;;;;5028647;28;20173;-72
2021/01/17 03:21:59;;;;;;;0.30;0.30;;;-2.50;99.90;;;;;;5027056;28;20204;-71
2021/01/17 03:24:25;;;;;;;2.10;1.90;;;-2.50;99.90;;;;;;5028604;28;20162;-71
2021/01/17 03:26:51;;;;;;;0.30;0.30;;;-2.50;99.90;;;;;;5028425;28;20170;-71
2021/01/17 03:29:17;;;;;;;0.70;0.70;;;-2.50;99.90;;;;;;5028334;28;20197;-71
2021/01/17 03:31:43;;;;;;;0.90;0.90;;;-2.50;99.90;;;;;;5027026;28;20563;-71
2021/01/17 03:34:09;;;;;;;1.95;1.85;;;-2.40;99.90;;;;;;5028303;28;20170;-71
2021/01/17 03:36:35;;;;;;;0.50;0.50;;;-2.40;99.90;;;;;;5028431;28;20189;-71
2021/01/17 03:39:00;;;;;;;0.10;0.10;;;-2.50;99.90;;;;;;5026668;28;20204;-71
2021/01/17 03:41:26;;;;;;;0.50;0.50;;;-2.50;99.90;;;;;;5027653;28;20273;-71
2021/01/17 03:43:52;;;;;;;0.75;0.75;;;-2.60;99.90;;;;;;5027450;28;20257;-70
2021/01/17 03:46:18;;;;;;;0.20;0.20;;;-2.50;99.90;;;;;;5027794;28;20998;-70
2021/01/17 03:48:44;;;;;;;1.05;1.05;;;-2.50;99.90;;;;;;5027847;28;20193;-70
2021/01/17 03:51:10;;;;;;;0.10;0.10;;;-2.50;99.90;;;;;;5027572;28;20174;-71
2021/01/17 03:53:37;;;;;;;0.20;0.20;;;-2.50;99.90;;;;;;5027809;28;20217;-70
2021/01/17 03:56:04;;;;;;;0.10;0.10;;;-2.40;99.90;;;;;;5024802;28;20528;-69
2021/01/17 03:58:30;;;;;;;0.20;0.20;;;-2.50;99.90;;;;;;5027558;28;20188;-70
2021/01/17 04:00:56;;;;;;;0.63;0.63;;;-2.50;99.90;;;;;;5027540;28;20161;-71
2021/01/17 04:03:21;;;;;;;1.58;1.52;;;-2.50;99.90;;;;;;5025918;28;20204;-71
2021/01/17 04:05:47;;;;;;;0.95;0.95;;;-2.50;99.90;;;;;;5027492;28;20174;-71
2021/01/17 04:08:13;;;;;;;0.20;0.20;;;-2.50;99.90;;;;;;5027351;28;20225;-70
2021/01/17 04:10:39;;;;;;;1.00;1.00;;;-2.50;99.90;;;;;;5027272;28;20177;-70
2021/01/17 04:13:05;;;;;;;0.30;0.30;;;-2.40;99.90;;;;;;5027046;28;20598;-69
2021/01/17 04:15:31;;;;;;;0.10;0.10;;;-2.50;99.90;;;;;;5027062;28;20216;-70
2021/01/17 04:17:57;;;;;;;1.55;1.27;;;-2.50;99.90;;;;;;5027000;28;20166;-70
2021/01/17 04:20:23;;;;;;;0.38;0.38;;;-2.50;99.90;;;;;;5025820;28;20166;-70
2021/01/17 04:22:49;;;;;;;0.10;0.10;;;-2.60;99.90;;;;;;5026969;28;20194;-69
2021/01/17 04:25:15;;;;;;;0.20;0.20;;;-2.60;99.90;;;;;;5027079;28;20166;-69
2021/01/17 04:27:41;;;;;;;0.25;0.25;;;-2.60;99.90;;;;;;5025710;28;20175;-70
2021/01/17 04:30:07;;;;;;;3.35;1.42;;;-2.70;99.90;;;;;;5026868;28;20193;-69
2021/01/17 04:32:37;;;;;;;0.20;0.20;;;-2.80;99.90;;;;;;5026778;28;20198;-69
2021/01/17 04:35:03;;;;;;;1.35;1.35;;;-2.80;99.90;;;;;;5024193;28;20677;-69
2021/01/17 04:37:29;;;;;;;3.63;3.25;;;-2.80;99.90;;;;;;5026857;28;20578;-70
2021/01/17 04:39:55;;;;;;;0.20;0.20;;;-2.80;99.90;;;;;;5026900;28;20182;-70
2021/01/17 04:42:23;;;;;;;0.75;0.75;;;-2.90;99.90;;;;;;5028309;28;20222;-70
2021/01/17 04:45:00;;;;;;;0.32;0.32;;;-2.90;99.90;;;;;;5026982;28;20176;-70
2021/01/17 04:47:27;;;;;;;2.83;1.55;;;-2.80;99.90;;;;;;5026966;28;20176;-71
2021/01/17 04:49:58;;;;;;;1.95;1.85;;;-2.80;99.90;;;;;;5027042;28;20177;-71
2021/01/17 04:52:28;;;;;;;1.10;1.10;;;-2.80;99.90;;;;;;5028396;28;20201;-70
2021/01/17 04:54:54;;;;;;;0.32;0.32;;;-2.80;99.90;;;;;;5025962;28;20595;-70
2021/01/17 04:57:32;;;;;;;0.10;0.10;;;-2.80;99.90;;;;;;5028092;28;20162;-70
2021/01/17 05:00:09;;;;;;;0.30;0.30;;;-2.80;99.90;;;;;;5027090;28;20174;-70
2021/01/17 05:03:01;;;;;;;1.67;1.50;;;-2.70;99.90;;;;;;5028180;28;20198;-70
2021/01/17 05:05:38;;;;;;;0.20;0.20;;;-2.70;99.90;;;;;;5028390;28;20304;-70
2021/01/17 05:08:30;;;;;;;1.25;1.23;;;-2.70;99.90;;;;;;5026684;28;20247;-70
2021/01/17 05:11:05;;;;;;;0.25;0.25;;;-2.80;99.90;;;;;;5028124;28;20221;-70
2021/01/17 05:13:37;;;;;;;0.68;0.68;;;-2.80;99.90;;;;;;5028295;28;20240;-70
2021/01/17 05:16:07;;;;;;;0.17;0.17;;;-2.80;99.90;;;;;;5028115;28;20186;-70
2021/01/17 05:18:33;;;;;;;0.20;0.20;;;-2.80;99.90;;;;;;5027778;28;20178;-70
2021/01/17 05:21:02;;;;;;;0.70;0.70;;;-2.80;99.90;;;;;;5026479;28;20296;-71
2021/01/17 05:23:35;;;;;;;1.02;1.02;;;-2.80;99.90;;;;;;5028173;28;20177;-71
2021/01/17 05:26:04;;;;;;;0.30;0.30;;;-2.80;99.90;;;;;;5028154;28;20618;-71
2021/01/17 05:28:31;;;;;;;0.30;0.30;;;-2.80;99.90;;;;;;5026735;28;20158;-71
2021/01/17 05:30:58;;;;;;;0.25;0.25;;;-2.80;99.90;;;;;;5028023;28;20162;-70
2021/01/17 05:33:29;;;;;;;0.82;0.82;;;-2.80;99.90;;;;;;5026672;28;20158;-71
2021/01/17 05:35:57;;;;;;;3.05;2.38;;;-2.80;99.90;;;;;;5026497;28;20185;-71
2021/01/17 05:38:24;;;;;;;0.40;0.40;;;-2.80;99.90;;;;;;5026432;28;20172;-71
2021/01/17 05:40:50;;;;;;;0.90;0.90;;;-2.80;99.90;;;;;;5027964;28;20241;-71
2021/01/17 05:43:15;;;;;;;0.32;0.32;;;-2.70;99.90;;;;;;5026471;28;20229;-70
2021/01/17 05:45:42;;;;;;;0.60;0.60;;;-2.70;99.90;;;;;;5027777;28;20211;-71
2021/01/17 05:48:10;;;;;;;0.60;0.60;;;-2.80;99.90;;;;;;5026470;28;20174;-70
2021/01/17 05:50:37;;;;;;;1.38;1.35;;;-2.80;99.90;;;;;;5026557;28;20233;-71
2021/01/17 05:53:05;;;;;;;1.02;1.02;;;-2.80;99.90;;;;;;5027783;28;20208;-70
2021/01/17 05:55:35;;;;;;;0.40;0.40;;;-3.10;99.90;;;;;;5027551;28;20188;-70
2021/01/17 05:58:42;;;;;;;0.70;0.70;;;-3.10;99.90;;;;;;5027602;28;20738;-70
2021/01/17 06:01:14;;;;;;;0.50;0.50;;;-3.00;99.90;;;;;;4986299;28;20175;-70
2021/01/17 06:03:52;;;;;;;0.32;0.32;;;-3.00;99.90;;;;;;4986597;28;20168;-70
2021/01/17 06:06:30;;;;;;;0.80;0.80;;;-2.90;99.90;;;;;;4986702;28;20191;-70
2021/01/17 06:08:58;;;;;;;0.10;0.10;;;-3.00;99.90;;;;;;4989973;28;20178;-71
2021/01/17 06:11:27;;;;;;;2.92;2.47;;;-3.00;99.90;;;;;;4989678;28;20199;-71
2021/01/17 06:13:57;;;;;;;0.22;0.22;;;-3.00;99.90;;;;;;4989962;28;20179;-71
2021/01/17 06:16:42;;;;;;;1.08;1.08;;;-3.10;99.90;;;;;;4989863;28;20199;-72
2021/01/17 06:19:10;;;;;;;0.20;0.20;;;-3.20;99.90;;;;;;4973558;28;20198;-71
2021/01/17 06:21:37;;;;;;;2.83;2.45;;;-3.20;99.90;;;;;;4958138;28;20231;-71
2021/01/17 06:24:08;;;;;;;0.10;0.10;;;-3.20;99.90;;;;;;4951369;29;20252;-71
2021/01/17 06:26:36;;;;;;;0.40;0.40;;;-3.20;99.90;;;;;;4951185;29;20256;-70
2021/01/17 06:29:04;;;;;;;0.57;0.57;;;-3.20;99.90;;;;;;4950883;29;20249;-70
2021/01/17 06:31:31;;;;;;;1.15;1.10;;;-3.10;99.90;;;;;;4972918;28;20278;-70
2021/01/17 06:34:04;;;;;;;0.43;0.43;;;-3.20;99.90;;;;;;5011187;28;20175;-72
2021/01/17 06:36:30;;;;;;;0.25;0.25;;;-3.20;99.90;;;;;;5026017;28;20210;-71
2021/01/17 06:38:57;;;;;;;0.20;0.20;;;-3.30;99.90;;;;;;5026210;28;20542;-71
2021/01/17 06:41:37;;;;;;;0.88;0.88;;;-3.20;99.90;;;;;;5010681;28;20210;-70
2021/01/17 06:44:07;;;;;;;0.73;0.73;;;-3.20;99.90;;;;;;5009849;28;20174;-71
2021/01/17 06:46:51;;;;;;;1.15;1.15;;;-3.30;99.90;;;;;;5011150;28;20186;-71
2021/01/17 06:49:23;;;;;;;0.88;0.80;;;-3.20;99.90;;;;;;5010991;28;20171;-71
2021/01/17 06:51:51;;;;;;;0.22;0.22;;;-3.20;99.90;;;;;;5025697;28;20199;-71
2021/01/17 06:54:20;;;;;;;2.80;1.85;;;-3.20;99.90;;;;;;5010460;28;20163;-71
2021/01/17 06:56:48;;;;;;;0.77;0.77;;;-3.10;99.90;;;;;;5010749;28;20147;-71
2021/01/17 06:59:40;;;;;;;4.20;3.50;;;-3.10;99.90;;;;;;5010570;28;20155;-70
2021/01/17 07:02:24;;;;;;;0.30;0.30;;;-3.00;99.90;;;;;;5025494;28;20195;-71
2021/01/17 07:04:56;;;;;;;3.63;1.77;;;-3.10;99.90;;;;;;5025658;28;20173;-70
2021/01/17 07:07:49;;;;;;;4.47;1.10;;;-3.10;99.90;;;;;;5010387;28;20171;-71
2021/01/17 07:10:23;;;;;;;0.20;0.20;;;-3.20;99.90;;;;;;5025438;28;20167;-71
2021/01/17 07:13:07;;;;;;;0.20;0.20;;;-3.20;99.90;;;;;;5025314;28;20194;-69
2021/01/17 07:15:43;;;;;;;0.20;0.20;;;-3.20;99.90;;;;;;5025348;28;20667;-71
2021/01/17 07:18:11;;;;;;;1.35;1.27;;;-3.20;99.90;;;;;;5009512;28;20186;-71
2021/01/17 07:20:45;;;;;;;0.20;0.20;;;-3.20;99.90;;;;;;5025097;28;20167;-71
2021/01/17 07:23:13;;;;;;;0.63;0.63;;;-3.20;99.90;;;;;;5010176;28;20237;-71
2021/01/17 07:25:48;;;;;;;1.00;1.00;;;-3.10;99.90;;;;;;5010057;28;20159;-70
2021/01/17 07:28:19;;;;;;;1.05;1.05;;;-3.00;99.90;;;;;;5010058;28;20159;-71
2021/01/17 07:31:11;;;;;;;0.93;0.57;;;-3.10;99.90;;;;;;5024990;28;20230;-70
2021/01/17 07:33:39;;;;;;;0.47;0.47;;;-3.00;99.90;;;;;;5023896;28;20187;-71
2021/01/17 07:36:15;;;;;;;0.25;0.25;;;-3.00;99.90;;;;;;5009897;28;20179;-71
2021/01/17 07:38:43;;;;;;;0.77;0.77;;;-3.00;99.90;;;;;;5009531;28;20166;-71
2021/01/17 07:41:11;;;;;;;0.35;0.35;;;-2.90;99.90;;;;;;5009338;28;20190;-71
2021/01/17 07:43:42;;;;;;;1.17;1.10;;;-2.90;99.90;;;;;;5024749;28;20198;-71
2021/01/17 07:46:09;;;;;;;0.20;0.20;;;-2.90;99.90;;;;;;5024908;28;20305;-71
2021/01/17 07:48:36;;;;;;;0.38;0.38;;;-2.90;99.90;;;;;;5009883;28;20178;-71
2021/01/17 07:51:04;;;;;;;0.55;0.55;;;-2.90;99.90;;;;;;5009434;28;20226;-71
2021/01/17 07:53:39;;;;;;;0.10;0.10;;;-2.90;99.90;;;;;;5009575;28;20186;-70
2021/01/17 07:56:12;;;;;;;0.65;0.65;;;-2.70;99.90;;;;;;5009378;28;20217;-70
2021/01/17 07:58:46;;;;;;;3.38;3.03;;;-2.70;99.90;;;;;;5009687;28;20170;-70
2021/01/17 08:01:31;;;;;;;20.05;13.65;;;-2.90;99.90;;;;;;5024252;28;20576;-70
2021/01/17 08:04:02;;;;;;;0.52;0.52;;;-2.80;99.90;;;;;;5009481;28;20178;-70
2021/01/17 08:06:34;;;;;;;0.20;0.20;;;-2.80;99.90;;;;;;5009520;28;20178;-71
2021/01/17 08:09:04;;;;;;;2.20;2.10;;;-2.70;99.90;;;;;;5009141;28;20170;-70
2021/01/17 08:11:43;;;;;;;0.10;0.10;;;-2.70;99.90;;;;;;5007965;28;20210;-70
2021/01/17 08:14:27;;;;;;;1.02;0.98;;;-2.70;99.90;;;;;;5009252;28;20177;-70
2021/01/17 08:17:14;;;;;;;0.20;0.20;;;-2.70;99.90;;;;;;5009286;28;20166;-70
2021/01/17 08:19:53;;;;;;;0.98;0.98;;;-2.80;99.90;;;;;;5008001;28;20181;-70
2021/01/17 08:22:22;;;;;;;0.20;0.20;;;-2.90;99.90;;;;;;5024268;28;20341;-71
2021/01/17 08:24:49;;;;;;;1.02;1.02;;;-2.80;99.90;;;;;;5009289;28;20163;-71
2021/01/17 08:27:45;;;;;;;5.32;1.73;;;-2.80;99.90;;;;;;5009021;28;20246;-70
2021/01/17 08:30:16;;;;;;;0.28;0.28;;;-2.70;99.90;;;;;;5023778;28;20189;-71
2021/01/17 08:32:45;;;;;;;1.23;1.23;;;-2.60;99.90;;;;;;5028574;28;20190;-70
2021/01/17 08:35:13;;;;;;;0.10;0.10;;;-2.50;99.90;;;;;;5028668;28;20221;-70
2021/01/17 08:37:46;;;;;;;0.75;0.75;;;-2.40;99.90;;;;;;5027341;28;20243;-70
2021/01/17 08:40:17;;;;;;;0.25;0.25;;;-2.30;99.90;;;;;;5028379;28;20154;-70
2021/01/17 08:42:57;;;;;;;0.30;0.30;;;-2.30;99.90;;;;;;5028234;28;20225;-70
2021/01/17 08:45:23;;;;;;;7.45;1.42;;;-2.40;99.90;;;;;;5028430;28;20209;-70
2021/01/17 08:47:50;;;;;;;1.05;1.05;;;-2.40;99.90;;;;;;5027123;28;20173;-69
2021/01/17 08:50:33;;;;;;;1.65;1.55;;;-2.50;99.90;;;;;;5027150;28;20170;-70
2021/01/17 08:53:10;;;;;;;0.30;0.30;;;-2.50;99.90;;;;;;5028056;28;20193;-69
2021/01/17 08:55:43;;;;;;;0.40;0.40;;;-2.50;99.90;;;;;;5028278;28;20257;-69
2021/01/17 08:58:13;;;;;;;0.98;0.98;;;-2.60;99.90;;;;;;5028371;28;20544;-70
2021/01/17 09:00:57;;;;;;;0.32;0.32;;;-2.50;99.90;;;;;;5028441;28;20158;-72
2021/01/17 09:03:30;;;;;;;1.55;1.55;;;-2.40;99.90;;;;;;5026968;28;20209;-70
2021/01/17 09:06:19;;;;;;;0.43;0.43;;;-2.50;99.90;;;;;;5028308;28;20220;-70
2021/01/17 09:08:48;;;;;;;0.20;0.20;;;-2.50;99.90;;;;;;5006504;28;20218;-70
2021/01/17 09:11:40;;;;;;;1.60;1.60;;;-2.50;99.90;;;;;;5022040;28;20254;-70
2021/01/17 09:14:13;;;;;;;2.08;1.75;;;-2.40;99.90;;;;;;5028342;28;20161;-71
2021/01/17 09:17:03;;;;;;;0.15;0.15;;;-2.20;99.90;;;;;;5028367;28;20194;-71
2021/01/17 09:19:34;;;;;;;0.10;0.10;;;-2.10;99.90;;;;;;5020555;28;20181;-70
2021/01/17 09:22:03;;;;;;;0.10;0.10;;;-2.00;99.90;;;;;;5027893;28;20181;-71
2021/01/17 09:24:31;;;;;;;0.10;0.10;;;-2.00;99.90;;;;;;5028087;28;20157;-71
2021/01/17 09:26:59;;;;;;;0.10;0.10;;;-2.10;99.90;;;;;;5026774;28;20182;-71
2021/01/17 09:29:35;;;;;;;1.02;1.02;;;-2.20;99.90;;;;;;5026549;28;20259;-71
2021/01/17 09:32:08;;;;;;;0.10;0.10;;;-2.20;99.90;;;;;;5028047;28;20213;-71
2021/01/17 09:34:40;;;;;;;0.20;0.20;;;-2.10;99.90;;;;;;5026489;28;20174;-71
2021/01/17 09:37:11;;;;;;;0.75;0.75;;;-1.90;99.90;;;;;;5026418;28;20166;-70
2021/01/17 09:39:49;;;;;;;0.20;0.20;;;-1.70;99.90;;;;;;5020274;28;20186;-71
2021/01/17 09:42:17;;;;;;;0.25;0.25;;;-1.40;99.90;;;;;;5019153;28;20571;-70
2021/01/17 09:44:51;;;;;;;0.13;0.13;;;-1.10;99.90;;;;;;5028385;28;20166;-71
2021/01/17 09:47:21;;;;;;;0.55;0.55;;;-0.90;99.90;;;;;;5028551;28;20162;-69
2021/01/17 09:49:48;;;;;;;2.17;2.00;;;-0.70;99.90;;;;;;5030817;28;20170;-72
2021/01/17 09:52:22;;;;;;;0.43;0.43;;;-0.50;99.90;;;;;;5030990;28;20193;-72
2021/01/17 09:54:49;;;;;;;2.00;1.45;;;0.00;99.90;;;;;;5032290;28;20194;-73
2021/01/17 09:57:20;;;;;;;0.20;0.20;;;0.00;99.90;;;;;;5032643;28;20524;-70
2021/01/17 09:59:49;;;;;;;0.10;0.10;;;1.00;99.90;;;;;;5032007;28;20198;-70
2021/01/17 10:02:22;;;;;;;1.42;1.35;;;2.10;99.90;;;;;;5032632;28;20197;-71
2021/01/17 10:04:49;;;;;;;1.00;0.65;;;3.00;99.90;;;;;;5032884;28;20158;-71
2021/01/17 10:07:23;;;;;;;0.90;0.90;;;3.60;99.90;;;;;;5031018;28;20234;-70
2021/01/17 10:09:50;;;;;;;0.13;0.13;;;4.20;99.90;;;;;;5031572;28;20505;-70
2021/01/17 10:12:25;;;;;;;3.20;1.42;;;5.60;99.90;;;;;;5031463;28;20166;-70
2021/01/17 10:14:52;;;;;;;0.35;0.35;;;6.10;99.90;;;;;;5046748;28;20194;-70
2021/01/17 10:17:18;;;;;;;0.13;0.13;;;6.70;99.90;;;;;;5029904;28;20265;-71
2021/01/17 10:19:47;;;;;;;0.75;0.75;;;6.90;99.90;;;;;;5029603;28;20261;-70
2021/01/17 10:22:17;;;;;;;0.88;0.88;;;6.50;99.90;;;;;;5031111;28;20227;-70
2021/01/17 10:24:44;;;;;;;0.60;0.60;;;6.20;99.90;;;;;;5029335;28;20192;-72
2021/01/17 10:27:11;;;;;;;6.80;2.92;;;6.00;99.90;;;;;;5030810;28;20150;-70
2021/01/17 10:29:40;;;;;;;0.45;0.45;;;5.90;99.90;;;;;;5029502;28;20225;-71
2021/01/17 10:32:12;;;;;;;1.77;1.67;;;6.40;99.90;;;;;;5030781;28;20170;-71
2021/01/17 10:34:40;;;;;;;2.40;2.30;;;6.60;99.90;;;;;;5030047;28;20225;-72
2021/01/17 10:37:09;;;;;;;2.03;1.92;;;6.70;99.90;;;;;;5030519;28;20182;-71
2021/01/17 10:39:38;;;;;;;2.08;1.90;;;6.90;99.90;;;;;;5028990;28;20268;-72
2021/01/17 10:42:13;;;;;;;1.80;1.70;;;6.70;99.90;;;;;;5029852;28;20245;-72
2021/01/17 10:44:55;;;;;;;3.15;2.85;;;7.20;99.90;;;;;;5030271;28;20252;-71
2021/01/17 10:47:41;;;;;;;6.75;2.72;;;7.80;99.90;;;;;;5030288;28;20166;-74
2021/01/17 10:50:11;;;;;;;1.63;1.52;;;6.80;99.90;;;;;;5030215;28;20289;-72
2021/01/17 10:53:08;;;;;;;0.70;0.70;;;6.50;99.90;;;;;;5028149;28;20236;-70
2021/01/17 10:55:37;;;;;;;2.22;2.03;;;6.20;99.90;;;;;;5028378;28;20212;-70
2021/01/17 10:58:04;;;;;;;1.67;1.58;;;5.70;99.90;;;;;;5029056;28;20205;-71
2021/01/17 11:00:31;;;;;;;1.15;1.08;;;4.90;99.90;;;;;;5030180;28;20197;-71
2021/01/17 11:03:04;;;;;;;2.20;2.10;;;4.60;99.90;;;;;;5029319;28;20205;-72
2021/01/17 11:05:30;;;;;;;2.42;1.95;;;4.00;99.90;;;;;;5028217;28;20217;-71
2021/01/17 11:07:56;;;;;;;1.35;1.33;;;4.40;99.90;;;;;;5030236;28;20217;-73
2021/01/17 11:10:23;;;;;;;1.58;1.48;;;4.10;99.90;;;;;;5027845;28;20166;-72
2021/01/17 11:12:49;;;;;;;0.70;0.70;;;4.20;99.90;;;;;;5045237;28;20170;-71
2021/01/17 11:15:20;;;;;;;1.13;1.10;;;4.40;99.90;;;;;;5028506;28;20270;-71
2021/01/17 11:17:59;;;;;;;2.30;2.10;;;5.10;99.90;;;;;;5030004;28;20229;-71
2021/01/17 11:20:27;;;;;;;2.20;1.63;;;4.80;99.90;;;;;;5044851;28;20189;-72
2021/01/17 11:23:03;;;;;;;0.73;0.73;;;4.20;99.90;;;;;;5029981;28;20154;-72
2021/01/17 11:25:30;;;;;;;0.63;0.63;;;3.90;99.90;;;;;;5029658;28;20213;-71
2021/01/17 11:28:02;;;;;;;1.35;1.30;;;4.00;99.90;;;;;;5029265;28;20166;-72
2021/01/17 11:30:30;;;;;;;1.60;1.50;;;4.10;99.90;;;;;;5025054;28;20187;-71
2021/01/17 11:33:12;;;;;;;3.75;1.38;;;3.90;99.90;;;;;;5010224;28;20182;-71
2021/01/17 11:35:40;;;;;;;0.82;0.82;;;4.60;99.90;;;;;;5009869;28;20297;-70
2021/01/17 11:38:07;;;;;;;2.60;2.40;;;4.90;99.90;;;;;;5036136;28;20201;-71
2021/01/17 11:40:34;;;;;;;0.63;0.63;;;5.10;99.90;;;;;;5029533;28;20186;-70
2021/01/17 11:43:11;;;;;;;0.88;0.88;;;5.40;99.90;;;;;;5028283;28;20347;-70
2021/01/17 11:45:44;;;;;;;0.13;0.13;;;5.00;99.90;;;;;;5029494;28;20197;-70
2021/01/17 11:48:11;;;;;;;0.47;0.47;;;4.10;99.90;;;;;;5028178;28;20265;-71
2021/01/17 11:50:46;;;;;;;0.52;0.52;;;3.40;99.90;;;;;;5028128;28;20181;-70
2021/01/17 11:53:12;;;;;;;2.58;1.83;;;2.90;99.90;;;;;;5028986;28;20272;-71
2021/01/17 11:55:39;;;;;;;1.45;1.20;;;2.70;99.90;;;;;;5029262;28;20213;-70
2021/01/17 11:58:09;;;;;;;1.70;1.60;;;2.40;99.90;;;;;;5029298;28;20174;-69
2021/01/17 12:01:04;;;;;;;0.68;0.68;;;2.60;99.90;;;;;;5029308;28;20161;-70
2021/01/17 12:03:34;;;;;;;1.05;1.05;;;2.50;99.90;;;;;;4968131;29;20267;-70
2021/01/17 12:06:01;;;;;;;3.15;1.38;;;2.20;99.90;;;;;;4967944;28;20262;-70
2021/01/17 12:08:59;;;;;;;0.55;0.55;;;1.70;99.90;;;;;;4952390;29;20869;-70
2021/01/17 12:11:38;;;;;;;0.52;0.52;;;0.90;99.90;;;;;;4968375;29;20176;-70
2021/01/17 12:14:24;;;;;;;0.93;0.93;;;0.70;99.90;;;;;;4951966;29;20246;-71
2021/01/17 12:16:53;;;;;;;0.25;0.25;;;0.80;99.90;;;;;;4968273;29;20218;-70
2021/01/17 12:19:21;;;;;;;0.38;0.38;;;1.50;99.90;;;;;;4967945;28;20199;-72
2021/01/17 12:21:52;;;;;;;1.45;1.45;;;2.50;99.90;;;;;;4968232;29;20172;-71
2021/01/17 12:24:18;;;;;;;1.55;1.45;;;2.90;99.90;;;;;;4967923;28;20283;-72
2021/01/17 12:26:45;;;;;;;1.35;1.30;;;2.70;99.90;;;;;;4968140;29;20222;-72
2021/01/17 12:29:12;;;;;;;2.38;2.10;;;2.70;99.90;;;;;;4968087;29;20272;-69
2021/01/17 12:31:39;;;;;;;0.93;0.93;;;2.60;99.90;;;;;;4967639;28;20184;-70
2021/01/17 12:34:06;;;;;;;0.50;0.50;;;3.10;99.90;;;;;;4967998;29;20207;-70
2021/01/17 12:36:33;;;;;;;0.38;0.38;;;3.20;99.90;;;;;;4967757;28;20324;-70
2021/01/17 12:39:02;;;;;;;0.90;0.90;;;3.90;99.90;;;;;;4990786;28;20201;-71
2021/01/17 12:41:31;;;;;;;0.90;0.90;;;3.80;99.90;;;;;;5027133;28;20248;-70
2021/01/17 12:43:58;;;;;;;0.98;0.98;;;2.90;99.90;;;;;;5043094;28;20178;-71
2021/01/17 12:46:25;;;;;;;1.17;1.17;;;1.70;99.90;;;;;;5027157;28;20217;-71
2021/01/17 12:48:51;;;;;;;4.72;4.40;;;1.00;99.90;;;;;;5028325;28;20173;-69
2021/01/17 12:51:17;;;;;;;1.15;0.88;;;0.70;99.90;;;;;;5043584;28;20198;-69
2021/01/17 12:53:45;;;;;;;0.50;0.50;;;0.50;99.90;;;;;;5031220;28;20173;-70
2021/01/17 12:56:11;;;;;;;3.45;3.15;;;0.60;99.90;;;;;;5045786;28;20675;-69
2021/01/17 12:58:38;;;;;;;2.38;2.17;;;0.40;99.90;;;;;;5011243;28;20174;-70
2021/01/17 13:01:05;;;;;;;0.90;0.85;;;0.50;99.90;;;;;;5007705;28;20171;-70
2021/01/17 13:03:32;;;;;;;3.13;2.50;;;0.50;99.90;;;;;;5007550;28;20297;-70
2021/01/17 13:05:58;;;;;;;0.73;0.73;;;0.50;99.90;;;;;;5007353;28;20222;-74
2021/01/17 13:08:24;;;;;;;0.80;0.77;;;0.40;99.90;;;;;;5008749;28;20194;-75